Time;durP1;ratioP1;P1;durP2;ratioP2;P2;SDS_P1;SDS_P2;PMS_P1;PMS_P2;Temp;Humidity;BMP_temperature;BMP_pressure;BME280_temperature;BME280_humidity;BME280_pressure;Samples;Min_cycle;Max_cycle;Signal;HPM_P1;HPM_P2
2024/01/21 00:00:36;;;;;;;11.77;7.40;;;;;;;3.74;51.34;102431.03;4956279;28;98134;-80
2024/01/21 00:03:04;;;;;;;10.68;7.07;;;;;;;3.73;51.21;102420.44;4934100;28;98927;-79
2024/01/21 00:05:31;;;;;;;11.23;7.10;;;;;;;3.73;51.31;102418.66;4952340;28;97054;-80
2024/01/21 00:07:58;;;;;;;10.18;7.18;;;;;;;3.73;51.19;102421.31;4945217;28;98458;-80
2024/01/21 00:10:24;;;;;;;10.82;7.38;;;;;;;3.72;51.32;102416.91;4957044;28;97873;-80
2024/01/21 00:12:51;;;;;;;11.15;7.53;;;;;;;3.73;50.95;102412.47;4928964;28;97848;-80
2024/01/21 00:15:18;;;;;;;13.80;7.85;;;;;;;3.73;51.07;102413.34;4931733;28;98575;-80
2024/01/21 00:17:44;;;;;;;10.95;7.05;;;;;;;3.72;51.11;102408.06;4945606;28;100263;-80
2024/01/21 00:20:11;;;;;;;8.88;6.88;;;;;;;3.71;51.00;102407.16;4943432;28;98592;-81
2024/01/21 00:22:40;;;;;;;11.55;7.55;;;;;;;3.72;51.00;102414.25;4939995;28;97849;-80
2024/01/21 00:25:09;;;;;;;12.63;7.90;;;;;;;3.73;50.79;102409.81;4944506;28;97213;-80
2024/01/21 00:27:36;;;;;;;12.30;7.82;;;;;;;3.75;50.71;102400.03;4929600;28;98501;-81
2024/01/21 00:30:04;;;;;;;13.98;8.65;;;;;;;3.74;50.72;102401.81;4931739;28;98457;-81
2024/01/21 00:32:31;;;;;;;10.77;7.82;;;;;;;3.73;50.57;102392.09;4928479;28;97459;-80
2024/01/21 00:34:58;;;;;;;11.57;7.85;;;;;;;3.73;50.66;102408.03;4941899;28;97938;-81
2024/01/21 00:37:25;;;;;;;11.25;7.65;;;;;;;3.73;50.70;102407.16;4940476;28;100453;-80
2024/01/21 00:39:52;;;;;;;11.73;8.02;;;;;;;3.73;50.80;102397.41;4924812;28;100637;-81
2024/01/21 00:42:19;;;;;;;12.45;8.05;;;;;;;3.74;50.60;102392.97;4928399;28;97846;-81
2024/01/21 00:44:46;;;;;;;11.30;8.18;;;;;;;3.73;50.72;102381.47;4954923;28;97044;-82
2024/01/21 00:47:13;;;;;;;12.73;8.07;;;;;;;3.73;50.67;102385.91;4943398;28;99925;-81
2024/01/21 00:49:40;;;;;;;12.57;8.43;;;;;;;3.72;50.59;102379.69;4947964;28;98141;-81
2024/01/21 00:52:08;;;;;;;10.43;8.13;;;;;;;3.72;50.70;102370.84;4941425;28;97327;-81
2024/01/21 00:54:35;;;;;;;12.95;8.45;;;;;;;3.71;50.46;102383.22;4943961;28;97061;-81
2024/01/21 00:57:02;;;;;;;13.82;8.93;;;;;;;3.72;50.58;102386.78;4941870;28;99841;-81
2024/01/21 00:59:29;;;;;;;9.93;7.90;;;;;;;3.69;50.50;102377.06;4943572;28;100217;-81
2024/01/21 01:01:55;;;;;;;15.05;8.73;;;;;;;3.67;50.63;102372.69;4944367;28;97821;-81
2024/01/21 01:04:22;;;;;;;10.95;8.27;;;;;;;3.63;50.58;102371.00;4938647;28;97290;-81
2024/01/21 01:06:49;;;;;;;12.70;8.98;;;;;;;3.60;50.47;102369.25;4923429;28;100923;-81
2024/01/21 01:09:16;;;;;;;11.32;8.35;;;;;;;3.57;50.40;102363.13;4944810;28;98105;-81
2024/01/21 01:11:44;;;;;;;12.52;8.38;;;;;;;3.55;50.46;102360.50;4961739;28;97641;-81
2024/01/21 01:14:11;;;;;;;10.88;7.80;;;;;;;3.54;50.47;102358.75;4952319;28;98420;-81
2024/01/21 01:16:38;;;;;;;11.55;7.43;;;;;;;3.50;50.32;102355.28;4941577;28;99809;-81
2024/01/21 01:19:06;;;;;;;12.95;8.70;;;;;;;3.45;50.41;102350.94;4940762;28;98637;-81
2024/01/21 01:21:33;;;;;;;11.30;7.70;;;;;;;3.41;50.14;102347.47;4942592;28;98102;-81
2024/01/21 01:24:01;;;;;;;11.77;7.32;;;;;;;3.41;50.23;102343.94;4944254;28;97463;-81
2024/01/21 01:26:27;;;;;;;12.85;8.40;;;;;;;3.37;50.30;102334.28;4942468;28;98365;-81
2024/01/21 01:28:54;;;;;;;10.20;7.80;;;;;;;3.36;50.11;102332.53;4944859;28;98395;-81
2024/01/21 01:31:21;;;;;;;12.80;8.70;;;;;;;3.34;50.17;102326.34;4945272;28;97369;-81
2024/01/21 01:33:48;;;;;;;13.13;8.57;;;;;;;3.33;50.27;102321.94;4945049;28;97439;-81
2024/01/21 01:36:15;;;;;;;12.70;8.98;;;;;;;3.31;50.21;102313.13;4941541;28;100219;-81
2024/01/21 01:38:41;;;;;;;13.60;9.13;;;;;;;3.30;50.25;102311.38;4937225;28;99920;-81
2024/01/21 01:41:09;;;;;;;11.48;8.25;;;;;;;3.27;50.22;102291.06;4942391;28;97672;-81
2024/01/21 01:43:36;;;;;;;10.23;7.78;;;;;;;3.25;50.24;102278.72;4941728;28;97138;-81
2024/01/21 01:46:04;;;;;;;11.90;8.05;;;;;;;3.23;50.10;102267.25;4953789;28;98633;-80
2024/01/21 01:48:32;;;;;;;12.57;8.95;;;;;;;3.22;50.30;102260.19;4918363;28;100129;-80
2024/01/21 01:51:00;;;;;;;12.63;8.30;;;;;;;3.22;50.30;102252.25;4963744;28;97384;-80
2024/01/21 01:53:28;;;;;;;13.23;8.73;;;;;;;3.19;50.32;102256.69;4969316;28;97123;-80
2024/01/21 01:55:55;;;;;;;11.38;8.25;;;;;;;3.18;50.41;102257.59;4958097;28;98130;-80
2024/01/21 01:58:26;;;;;;;11.77;8.90;;;;;;;3.19;50.24;102255.81;4924950;28;99987;-80
2024/01/21 02:00:53;;;;;;;12.65;8.98;;;;;;;3.15;50.12;102248.81;4959002;28;97447;-81
2024/01/21 02:03:23;;;;;;;12.80;8.27;;;;;;;3.15;50.07;102246.16;4939517;28;97289;-81
2024/01/21 02:05:50;;;;;;;12.75;8.82;;;;;;;3.13;50.23;102238.22;4942164;28;99005;-81
2024/01/21 02:08:17;;;;;;;10.50;8.25;;;;;;;3.10;50.00;102237.41;4959508;28;100495;-81
2024/01/21 02:10:44;;;;;;;13.00;7.82;;;;;;;3.11;50.17;102229.41;4951543;28;97563;-81
2024/01/21 02:13:11;;;;;;;9.57;7.53;;;;;;;3.10;50.12;102224.13;4942344;28;97117;-81
2024/01/21 02:15:38;;;;;;;11.52;8.18;;;;;;;3.09;50.16;102223.25;4938315;28;100744;-82
2024/01/21 02:18:05;;;;;;;9.90;7.85;;;;;;;3.08;50.18;102226.81;4942846;28;99795;-81
2024/01/21 02:20:33;;;;;;;10.98;7.75;;;;;;;3.09;49.86;102222.38;4948545;28;97849;-82
2024/01/21 02:23:00;;;;;;;13.70;7.90;;;;;;;3.09;50.01;102214.41;4945706;28;96977;-81
2024/01/21 02:25:27;;;;;;;10.18;7.18;;;;;;;3.11;50.09;102224.09;4957167;28;98281;-81
2024/01/21 02:27:53;;;;;;;11.77;7.95;;;;;;;3.11;49.95;102212.63;4960783;28;98325;-81
2024/01/21 02:30:20;;;;;;;11.23;7.75;;;;;;;3.12;49.97;102209.94;4961663;28;97585;-81
2024/01/21 02:32:47;;;;;;;9.57;7.03;;;;;;;3.14;49.96;102196.63;4951074;28;97361;-81
2024/01/21 02:35:14;;;;;;;8.95;6.88;;;;;;;3.13;50.02;102195.75;4964323;28;101251;-81
2024/01/21 02:37:41;;;;;;;9.98;7.25;;;;;;;3.13;49.88;102185.16;4954287;28;97954;-80
2024/01/21 02:40:08;;;;;;;9.68;6.47;;;;;;;3.14;49.83;102181.59;4948982;28;98557;-81
2024/01/21 02:42:35;;;;;;;10.02;6.70;;;;;;;3.17;49.77;102183.31;4942496;28;97175;-81
2024/01/21 02:45:01;;;;;;;9.20;6.50;;;;;;;3.19;50.01;102179.72;4948548;28;97146;-81
2024/01/21 02:47:28;;;;;;;8.38;6.30;;;;;;;3.24;49.92;102178.75;4930519;28;98113;-80
2024/01/21 02:49:55;;;;;;;10.98;6.38;;;;;;;3.26;49.83;102166.31;4961541;28;97195;-80
2024/01/21 02:52:21;;;;;;;9.63;6.38;;;;;;;3.29;49.78;102163.59;4955949;28;97116;-80
2024/01/21 02:54:48;;;;;;;9.38;6.38;;;;;;;3.31;49.87;102153.84;4952687;28;99303;-81
2024/01/21 02:57:15;;;;;;;10.45;5.97;;;;;;;3.34;49.75;102153.75;4949640;28;97278;-81
2024/01/21 02:59:41;;;;;;;11.52;6.43;;;;;;;3.36;49.67;102157.25;4934793;28;97429;-81
2024/01/21 03:02:09;;;;;;;7.80;6.13;;;;;;;3.39;49.76;102144.81;4935923;28;97504;-81
2024/01/21 03:04:36;;;;;;;7.65;5.80;;;;;;;3.42;49.59;102128.81;4952709;28;98464;-81
2024/01/21 03:07:03;;;;;;;9.20;6.13;;;;;;;3.43;49.56;102135.88;4939793;28;99985;-81
2024/01/21 03:09:30;;;;;;;8.93;6.05;;;;;;;3.46;49.47;102134.91;4947905;28;98342;-81
2024/01/21 03:11:57;;;;;;;8.13;5.70;;;;;;;3.48;49.61;102127.81;4936622;28;97526;-81
2024/01/21 03:14:23;;;;;;;8.27;5.95;;;;;;;3.50;49.68;102123.31;4943304;28;98362;-81
2024/01/21 03:16:50;;;;;;;6.85;5.70;;;;;;;3.52;49.45;102110.88;4942143;28;100242;-81
2024/01/21 03:19:17;;;;;;;7.55;5.15;;;;;;;3.53;49.53;102111.75;4936110;28;97653;-81
2024/01/21 03:21:44;;;;;;;7.43;5.65;;;;;;;3.54;49.31;102103.75;4943144;28;98057;-80
2024/01/21 03:24:11;;;;;;;6.18;5.25;;;;;;;3.55;49.19;102107.28;4930431;28;99975;-81
2024/01/21 03:26:39;;;;;;;7.20;5.07;;;;;;;3.57;49.38;102098.38;4918174;28;100539;-81
2024/01/21 03:29:05;;;;;;;8.07;5.30;;;;;;;3.58;49.28;102094.81;4955322;28;97718;-81
2024/01/21 03:31:32;;;;;;;7.82;5.03;;;;;;;3.59;49.30;102091.25;4943081;28;99306;-82
2024/01/21 03:33:59;;;;;;;8.18;5.22;;;;;;;3.62;49.10;102091.19;4938275;28;97857;-82
2024/01/21 03:36:26;;;;;;;7.63;4.85;;;;;;;3.64;49.00;102092.03;4946006;28;98378;-81
2024/01/21 03:38:53;;;;;;;7.55;4.85;;;;;;;3.68;49.15;102091.03;4954048;28;97374;-81
2024/01/21 03:41:20;;;;;;;8.23;4.65;;;;;;;3.71;48.94;102093.63;4952357;28;97135;-81
2024/01/21 03:43:47;;;;;;;8.00;5.15;;;;;;;3.72;49.10;102092.75;4952716;28;98231;-81
2024/01/21 03:46:13;;;;;;;6.68;4.88;;;;;;;3.74;49.07;102079.44;4942711;28;98625;-81
2024/01/21 03:48:40;;;;;;;8.93;5.40;;;;;;;3.74;49.10;102082.97;4928771;28;97504;-82
2024/01/21 03:51:10;;;;;;;6.65;5.00;;;;;;;3.75;49.01;102075.88;4940461;28;97451;-82
2024/01/21 03:53:39;;;;;;;5.20;4.05;;;;;;;3.75;48.92;102079.41;4952158;28;98543;-81
2024/01/21 03:56:06;;;;;;;7.57;4.85;;;;;;;3.77;48.84;102071.41;4957922;28;99388;-81
2024/01/21 03:58:34;;;;;;;7.55;4.85;;;;;;;3.78;49.07;102073.16;4942487;28;97379;-82
2024/01/21 04:01:04;;;;;;;6.97;4.95;;;;;;;3.79;48.82;102066.91;4951380;28;97585;-82
2024/01/21 04:03:31;;;;;;;6.78;4.63;;;;;;;3.78;48.94;102058.06;4939821;28;97825;-81
2024/01/21 04:05:58;;;;;;;8.25;5.28;;;;;;;3.80;48.73;102058.03;4950912;28;100269;-81
2024/01/21 04:08:24;;;;;;;5.40;4.40;;;;;;;3.81;48.76;102054.47;4939995;28;97271;-81
2024/01/21 04:10:51;;;;;;;6.30;4.22;;;;;;;3.82;48.67;102035.84;4949363;28;97441;-81
2024/01/21 04:13:18;;;;;;;7.90;4.88;;;;;;;3.84;48.35;102038.44;4955275;28;98167;-80
2024/01/21 04:15:45;;;;;;;6.18;4.35;;;;;;;3.83;48.67;102024.28;4953611;28;98429;-80
2024/01/21 04:18:12;;;;;;;6.05;4.60;;;;;;;3.85;48.58;102029.56;4939637;28;97225;-81
2024/01/21 04:20:39;;;;;;;5.82;4.30;;;;;;;3.85;48.76;102013.63;4945561;28;98118;-81
2024/01/21 04:23:06;;;;;;;5.57;4.18;;;;;;;3.86;48.69;102012.72;4933581;28;99990;-80
2024/01/21 04:25:32;;;;;;;6.35;3.97;;;;;;;3.85;48.57;102008.31;4943758;28;100034;-80
2024/01/21 04:27:59;;;;;;;5.35;4.25;;;;;;;3.85;48.60;102005.66;4939740;28;97934;-82
2024/01/21 04:30:26;;;;;;;6.07;4.13;;;;;;;3.84;48.36;102003.91;4943205;28;96805;-83
2024/01/21 04:32:54;;;;;;;6.63;4.40;;;;;;;3.84;48.70;102001.25;4954225;28;98014;-80
2024/01/21 04:35:21;;;;;;;7.47;4.13;;;;;;;3.83;48.46;102004.81;4947632;28;100984;-83
2024/01/21 04:37:48;;;;;;;5.97;4.20;;;;;;;3.80;48.58;102004.91;4964384;28;97648;-82
2024/01/21 04:40:15;;;;;;;5.80;4.05;;;;;;;3.80;48.47;101988.94;4962613;28;97259;-81
2024/01/21 04:42:42;;;;;;;5.10;4.07;;;;;;;3.79;48.54;101977.44;4952063;28;100144;-80
2024/01/21 04:45:09;;;;;;;6.78;4.28;;;;;;;3.80;48.52;101979.19;4947036;28;99221;-81
2024/01/21 04:47:38;;;;;;;8.18;4.35;;;;;;;3.80;48.45;101973.00;4930273;28;97338;-81
2024/01/21 04:50:05;;;;;;;5.40;4.47;;;;;;;3.80;48.39;101973.88;4966209;28;97612;-81
2024/01/21 04:52:32;;;;;;;5.32;4.00;;;;;;;3.81;48.29;101964.13;4980984;28;98155;-81
2024/01/21 04:54:59;;;;;;;6.82;3.90;;;;;;;3.81;48.44;101948.19;4946790;28;98597;-81
2024/01/21 04:57:26;;;;;;;5.97;4.10;;;;;;;3.82;48.30;101934.84;4961738;28;97410;-81
2024/01/21 04:59:52;;;;;;;6.55;3.92;;;;;;;3.85;48.32;101923.28;4955351;28;98195;-81
2024/01/21 05:02:19;;;;;;;6.30;4.50;;;;;;;3.89;48.49;101932.03;4957550;28;100398;-81
2024/01/21 05:04:46;;;;;;;6.28;4.22;;;;;;;3.93;48.34;101931.06;4937139;28;98133;-81
2024/01/21 05:07:12;;;;;;;5.00;3.75;;;;;;;3.96;48.47;101917.69;4947461;28;97512;-81
2024/01/21 05:09:39;;;;;;;6.55;3.80;;;;;;;3.97;48.51;101944.22;4965162;28;97476;-81
2024/01/21 05:12:06;;;;;;;5.43;3.70;;;;;;;4.01;48.37;101945.88;4944270;28;99867;-81
2024/01/21 05:14:34;;;;;;;5.85;3.92;;;;;;;4.06;48.25;101937.78;4946964;28;100444;-82
2024/01/21 05:17:01;;;;;;;6.15;3.97;;;;;;;4.10;48.31;101937.66;4930885;28;97136;-82
2024/01/21 05:19:27;;;;;;;5.05;4.15;;;;;;;4.14;48.51;101930.47;4939656;28;97718;-82
2024/01/21 05:21:54;;;;;;;5.55;4.25;;;;;;;4.17;48.50;101914.44;4946225;28;100251;-81
2024/01/21 05:24:21;;;;;;;6.45;4.45;;;;;;;4.23;48.30;101937.31;4929907;28;100265;-81
2024/01/21 05:26:47;;;;;;;5.70;3.67;;;;;;;4.28;48.35;101922.13;4943018;28;97551;-81
2024/01/21 05:29:14;;;;;;;7.90;4.10;;;;;;;4.31;48.27;101936.19;4946401;28;97194;-81
2024/01/21 05:31:40;;;;;;;6.18;4.45;;;;;;;4.33;48.28;101933.50;4943744;28;98696;-82
2024/01/21 05:34:07;;;;;;;5.28;3.97;;;;;;;4.36;48.24;101939.59;4941574;28;100141;-82
2024/01/21 05:36:34;;;;;;;5.85;4.25;;;;;;;4.39;48.30;101938.66;4950528;28;98008;-80
2024/01/21 05:39:01;;;;;;;8.45;4.03;;;;;;;4.40;48.30;101919.97;4945314;28;97363;-82
2024/01/21 05:41:28;;;;;;;6.38;4.53;;;;;;;4.41;48.13;101903.13;4923435;28;100244;-81
2024/01/21 05:43:55;;;;;;;6.72;4.28;;;;;;;4.42;48.10;101894.22;4922410;28;100052;-82
2024/01/21 05:46:22;;;;;;;5.88;4.30;;;;;;;4.43;48.20;101868.50;4941438;28;96859;-81
2024/01/21 05:48:49;;;;;;;5.50;3.97;;;;;;;4.45;47.94;101882.63;4941728;28;97779;-81
2024/01/21 05:51:16;;;;;;;7.03;4.88;;;;;;;4.46;47.94;101865.78;4939681;28;98525;-81
2024/01/21 05:53:44;;;;;;;6.50;4.03;;;;;;;4.46;47.92;101884.41;4939294;28;100512;-82
2024/01/21 05:56:11;;;;;;;7.00;4.80;;;;;;;4.47;48.06;101895.00;4936600;28;97309;-82
2024/01/21 05:58:38;;;;;;;6.85;4.68;;;;;;;4.48;48.11;101890.53;4933727;28;99231;-82
2024/01/21 06:01:05;;;;;;;7.45;4.72;;;;;;;4.50;48.17;101886.03;4940332;28;99479;-82
2024/01/21 06:03:32;;;;;;;6.43;4.50;;;;;;;4.52;48.14;101872.69;4943771;28;97624;-83
2024/01/21 06:05:59;;;;;;;5.88;4.55;;;;;;;4.51;47.77;101881.59;4943228;28;97629;-81
2024/01/21 06:08:27;;;;;;;7.20;4.80;;;;;;;4.51;47.77;101868.31;4941408;28;97671;-82
2024/01/21 06:10:54;;;;;;;7.05;5.38;;;;;;;4.52;48.10;101878.03;4938951;28;98041;-83
2024/01/21 06:13:21;;;;;;;6.75;4.82;;;;;;;4.52;47.97;101884.22;4934418;28;99918;-82
2024/01/21 06:15:49;;;;;;;8.15;5.10;;;;;;;4.53;47.89;101882.44;4940426;28;97400;-82
2024/01/21 06:18:16;;;;;;;6.60;5.05;;;;;;;4.55;47.88;101875.28;4939680;28;97268;-82
2024/01/21 06:20:42;;;;;;;8.45;6.07;;;;;;;4.56;47.89;101901.81;4941476;28;98328;-83
2024/01/21 06:23:09;;;;;;;9.10;5.47;;;;;;;4.58;48.07;101893.81;4934462;28;98323;-82
2024/01/21 06:25:36;;;;;;;6.75;4.85;;;;;;;4.60;47.98;101907.94;4933779;28;97562;-83
2024/01/21 06:28:04;;;;;;;7.78;5.53;;;;;;;4.64;48.05;101901.59;4951390;28;98919;-83
2024/01/21 06:30:30;;;;;;;8.27;5.68;;;;;;;4.64;47.92;101909.59;4921976;28;98416;-83
2024/01/21 06:32:57;;;;;;;6.80;5.03;;;;;;;4.67;47.81;101904.16;4936127;28;99664;-83
2024/01/21 06:35:29;;;;;;;8.13;5.25;;;;;;;4.68;48.07;101904.13;4930222;28;96973;-83
2024/01/21 06:37:56;;;;;;;9.48;5.80;;;;;;;4.71;48.09;101916.47;4922032;28;97522;-83
2024/01/21 06:40:23;;;;;;;8.02;5.80;;;;;;;4.72;47.84;101905.78;4932141;28;100531;-82
2024/01/21 06:42:50;;;;;;;9.65;6.13;;;;;;;4.77;47.91;101905.63;4952087;28;100073;-82
2024/01/21 06:45:17;;;;;;;8.52;5.97;;;;;;;4.79;48.24;101895.81;4945723;28;97914;-82
2024/01/21 06:47:44;;;;;;;8.05;6.18;;;;;;;4.83;48.20;101905.44;4959313;28;98007;-82
2024/01/21 06:50:11;;;;;;;7.97;5.97;;;;;;;4.85;48.18;101894.75;4937540;28;99566;-82
2024/01/21 06:52:38;;;;;;;7.85;6.50;;;;;;;4.89;48.02;101907.06;4954351;28;98588;-82
2024/01/21 06:55:06;;;;;;;8.90;5.97;;;;;;;4.94;48.15;101918.44;4944020;28;96843;-83
2024/01/21 06:57:33;;;;;;;8.75;5.90;;;;;;;4.98;48.11;101901.44;4939240;28;97626;-82
2024/01/21 07:00:02;;;;;;;7.45;5.93;;;;;;;5.02;48.09;101903.09;4955062;28;98179;-83
2024/01/21 07:02:29;;;;;;;8.80;6.15;;;;;;;5.05;48.27;101890.56;4939874;28;100721;-82
2024/01/21 07:04:56;;;;;;;9.73;6.72;;;;;;;5.08;48.01;101882.47;4937987;28;97005;-82
2024/01/21 07:07:22;;;;;;;10.32;5.82;;;;;;;5.12;48.12;101867.28;4949148;28;97526;-82
2024/01/21 07:09:49;;;;;;;8.20;6.13;;;;;;;5.15;47.97;101853.84;4938158;28;98121;-82
2024/01/21 07:12:16;;;;;;;10.25;6.35;;;;;;;5.20;48.07;101854.59;4940449;28;98346;-82
2024/01/21 07:14:44;;;;;;;8.82;6.88;;;;;;;5.21;48.00;101848.34;4940527;28;97163;-82
2024/01/21 07:17:11;;;;;;;8.98;6.63;;;;;;;5.24;48.02;101832.28;4940514;28;97305;-82
2024/01/21 07:19:38;;;;;;;8.20;6.30;;;;;;;5.26;48.00;101841.09;4938067;28;98069;-82
2024/01/21 07:22:04;;;;;;;9.48;6.18;;;;;;;5.30;47.95;101833.88;4954239;28;100323;-83
2024/01/21 07:24:31;;;;;;;8.75;5.90;;;;;;;5.34;47.68;101849.69;4949248;28;97369;-82
2024/01/21 07:26:58;;;;;;;9.55;5.95;;;;;;;5.34;47.86;101823.06;4955794;28;99092;-83
2024/01/21 07:29:25;;;;;;;9.88;6.30;;;;;;;5.37;47.66;101827.41;4922425;28;100416;-82
2024/01/21 07:31:51;;;;;;;8.05;5.90;;;;;;;5.39;47.60;101833.56;4953531;28;98499;-82
2024/01/21 07:34:19;;;;;;;8.75;6.13;;;;;;;5.42;47.74;101820.13;4937643;28;97460;-82
2024/01/21 07:36:45;;;;;;;9.68;6.30;;;;;;;5.44;47.55;101834.28;4939777;28;96950;-83
2024/01/21 07:39:12;;;;;;;8.02;5.88;;;;;;;5.45;47.41;101860.00;4915120;28;99904;-82
2024/01/21 07:41:39;;;;;;;7.82;5.82;;;;;;;5.49;47.46;101868.75;4935768;28;100451;-82
2024/01/21 07:44:06;;;;;;;11.10;5.90;;;;;;;5.51;47.60;101845.59;4925756;28;97657;-82
2024/01/21 07:46:33;;;;;;;8.63;6.05;;;;;;;5.51;47.45;101857.13;4945344;28;97396;-82
2024/01/21 07:49:00;;;;;;;8.75;6.00;;;;;;;5.52;47.23;101880.16;4935744;28;100486;-82
2024/01/21 07:51:27;;;;;;;7.50;6.18;;;;;;;5.52;47.20;101888.16;4935832;28;98828;-83
2024/01/21 07:53:54;;;;;;;7.70;6.15;;;;;;;5.54;47.25;101894.31;4909981;28;97383;-82
2024/01/21 07:56:21;;;;;;;11.02;6.45;;;;;;;5.54;47.10;101904.09;4922535;28;97428;-82
2024/01/21 07:58:48;;;;;;;8.95;6.82;;;;;;;5.55;47.07;101888.06;4951191;28;98620;-83
2024/01/21 08:01:20;;;;;;;8.55;6.35;;;;;;;5.58;46.98;101898.63;4941204;28;98584;-81
2024/01/21 08:03:48;;;;;;;8.48;6.22;;;;;;;5.60;47.05;101895.91;4933554;28;97982;-81
2024/01/21 08:06:15;;;;;;;9.68;5.97;;;;;;;5.62;47.15;101913.59;4929351;28;97296;-77
2024/01/21 08:08:42;;;;;;;8.35;6.22;;;;;;;5.65;47.01;101905.47;4957142;28;100427;-82
2024/01/21 08:11:09;;;;;;;8.20;6.05;;;;;;;5.68;46.94;101905.38;4941255;28;98993;-82
2024/01/21 08:13:36;;;;;;;8.88;6.13;;;;;;;5.68;46.97;101918.72;4940173;28;97544;-82
2024/01/21 08:16:03;;;;;;;7.20;5.88;;;;;;;5.70;46.99;101914.19;4941891;28;97238;-82
2024/01/21 08:18:30;;;;;;;8.95;6.03;;;;;;;5.73;46.91;101914.09;4942496;28;97575;-81
2024/01/21 08:21:00;;;;;;;7.28;5.57;;;;;;;5.74;46.92;101913.16;4939670;28;97800;-81
2024/01/21 08:23:27;;;;;;;7.63;5.72;;;;;;;5.78;46.75;101915.72;4957719;28;96884;-81
2024/01/21 08:25:53;;;;;;;7.35;6.10;;;;;;;5.82;46.82;101920.91;4949510;28;98068;-81
2024/01/21 08:28:20;;;;;;;7.72;6.20;;;;;;;5.85;46.85;101923.47;4938252;28;98932;-82
2024/01/21 08:31:03;;;;;;;9.10;6.35;;;;;;;5.89;47.06;101924.22;5020807;27;96781;-70
2024/01/21 08:33:30;;;;;;;8.88;5.57;;;;;;;5.92;46.89;101926.81;5033151;27;97039;-70
2024/01/21 08:35:57;;;;;;;8.95;5.68;;;;;;;5.95;46.76;101935.63;5024351;27;97587;-70
2024/01/21 08:38:24;;;;;;;7.60;5.72;;;;;;;5.98;46.63;101942.63;5026348;27;97594;-70
2024/01/21 08:40:51;;;;;;;6.95;5.43;;;;;;;6.00;46.68;101931.00;5023567;27;98721;-70
2024/01/21 08:43:17;;;;;;;7.53;5.82;;;;;;;6.03;46.79;101944.22;5020890;27;97248;-70
2024/01/21 08:45:44;;;;;;;8.90;5.80;;;;;;;6.05;46.35;101944.16;5018403;27;98531;-70
2024/01/21 08:48:11;;;;;;;8.52;6.47;;;;;;;6.09;46.57;101945.81;5004454;27;99470;-71
2024/01/21 08:50:39;;;;;;;7.80;6.05;;;;;;;6.12;46.73;101931.50;5013052;27;97288;-71
2024/01/21 08:53:06;;;;;;;7.40;5.55;;;;;;;6.14;46.36;101926.97;5009585;27;96959;-69
2024/01/21 08:55:32;;;;;;;7.15;5.57;;;;;;;6.16;46.54;101925.13;5013260;27;97530;-71
2024/01/21 08:58:00;;;;;;;8.02;5.72;;;;;;;6.19;46.52;101928.56;5015677;27;98223;-70
2024/01/21 09:00:27;;;;;;;9.15;6.25;;;;;;;6.22;46.66;101935.56;5024933;27;97299;-70
2024/01/21 09:02:54;;;;;;;8.30;5.43;;;;;;;6.24;46.53;101933.72;5030845;27;96934;-70
2024/01/21 09:05:21;;;;;;;7.07;5.35;;;;;;;6.27;46.70;101937.16;5026558;27;97614;-70
2024/01/21 09:07:47;;;;;;;8.45;5.68;;;;;;;6.29;46.50;101943.31;5017549;27;98893;-71
2024/01/21 09:10:14;;;;;;;8.55;6.30;;;;;;;6.32;46.66;101947.66;5014295;27;97391;-70
2024/01/21 09:12:41;;;;;;;7.85;5.95;;;;;;;6.34;46.74;101969.81;5020152;27;96907;-70
2024/01/21 09:15:09;;;;;;;6.93;5.60;;;;;;;6.36;46.64;101976.84;5022875;27;97476;-70
2024/01/21 09:17:35;;;;;;;6.97;5.55;;;;;;;6.37;46.60;101973.25;5008624;27;97626;-70
2024/01/21 09:20:03;;;;;;;8.68;5.75;;;;;;;6.40;46.78;101974.06;5019457;27;97113;-70
2024/01/21 09:22:29;;;;;;;7.35;5.55;;;;;;;6.41;46.64;101967.78;5021430;27;96902;-70
2024/01/21 09:24:56;;;;;;;7.80;6.00;;;;;;;6.41;46.72;101971.34;5016062;27;98176;-70
2024/01/21 09:27:23;;;;;;;8.52;5.45;;;;;;;6.44;46.70;101967.69;5016493;27;98368;-70
2024/01/21 09:29:50;;;;;;;7.55;5.43;;;;;;;6.47;46.66;101967.56;5009724;27;97322;-70
2024/01/21 09:32:17;;;;;;;9.30;5.93;;;;;;;6.48;46.93;101958.66;5016969;27;98094;-70
2024/01/21 09:34:44;;;;;;;7.85;5.95;;;;;;;6.50;46.66;101959.47;5018579;27;97663;-70
2024/01/21 09:37:11;;;;;;;7.72;5.68;;;;;;;6.52;47.08;101973.63;5016699;27;98129;-70
2024/01/21 09:39:38;;;;;;;8.75;6.13;;;;;;;6.52;46.93;101966.47;5015455;27;97256;-70
2024/01/21 09:42:07;;;;;;;7.78;5.72;;;;;;;6.52;47.21;101955.81;5016264;27;97260;-70
2024/01/21 09:44:34;;;;;;;8.60;6.18;;;;;;;6.54;47.16;101948.63;5002898;28;97586;-70
2024/01/21 09:47:01;;;;;;;8.98;6.10;;;;;;;6.56;47.20;101952.09;5012027;28;97668;-70
2024/01/21 09:49:31;;;;;;;7.28;5.53;;;;;;;6.57;47.35;101958.31;5020523;28;98192;-70
2024/01/21 09:51:59;;;;;;;9.23;6.57;;;;;;;6.58;47.22;101963.59;5004013;28;97033;-70
2024/01/21 09:54:25;;;;;;;7.10;5.82;;;;;;;6.60;47.31;101964.41;4989617;28;97432;-70
2024/01/21 09:56:52;;;;;;;6.80;5.78;;;;;;;6.62;47.30;101983.03;4998670;28;97720;-70
2024/01/21 09:59:19;;;;;;;8.98;6.30;;;;;;;6.62;47.42;101981.22;5005213;28;97179;-70
2024/01/21 10:01:46;;;;;;;7.90;5.80;;;;;;;6.63;47.22;101974.09;5014187;28;97426;-70
2024/01/21 10:04:14;;;;;;;9.32;6.30;;;;;;;6.64;47.71;101950.00;5007561;27;97603;-70
2024/01/21 10:06:41;;;;;;;8.02;6.05;;;;;;;6.68;47.82;101961.44;4991690;28;97421;-69
2024/01/21 10:09:17;;;;;;;7.53;5.97;;;;;;;6.70;47.79;101948.94;5002849;28;97426;-69
2024/01/21 10:11:49;;;;;;;10.60;6.55;;;;;;;6.74;47.92;101971.06;5012012;27;97301;-70
2024/01/21 10:14:16;;;;;;;8.43;5.68;;;;;;;6.76;47.89;101970.06;4997037;28;97546;-70
2024/01/21 10:16:44;;;;;;;9.32;6.35;;;;;;;6.77;48.01;101971.81;5004128;28;97982;-70
2024/01/21 10:19:12;;;;;;;7.75;6.70;;;;;;;6.78;48.18;101964.69;4998397;28;96763;-70
2024/01/21 10:21:39;;;;;;;8.82;6.80;;;;;;;6.80;48.24;101971.69;5000777;28;96964;-70
2024/01/21 10:24:08;;;;;;;7.13;6.00;;;;;;;6.80;48.29;101958.34;4994452;28;97502;-70
2024/01/21 10:26:37;;;;;;;8.60;6.25;;;;;;;6.81;48.39;101973.44;4999864;28;97985;-69
2024/01/21 10:29:04;;;;;;;8.07;6.18;;;;;;;6.82;48.37;101969.84;5001313;28;97559;-70
2024/01/21 10:31:33;;;;;;;7.63;6.10;;;;;;;6.83;48.48;101981.41;5003420;28;98126;-70
2024/01/21 10:34:02;;;;;;;9.55;6.50;;;;;;;6.84;48.55;101973.31;4994994;28;98078;-70
2024/01/21 10:36:34;;;;;;;7.80;6.22;;;;;;;6.85;48.63;101961.72;5000140;28;97478;-70
2024/01/21 10:39:06;;;;;;;9.98;6.85;;;;;;;6.89;48.75;101949.13;5000125;28;96760;-70
2024/01/21 10:41:34;;;;;;;8.10;6.15;;;;;;;6.91;48.79;101942.78;5003800;28;96983;-70
2024/01/21 10:44:02;;;;;;;10.98;6.63;;;;;;;6.93;48.99;101930.25;5006356;28;97869;-70
2024/01/21 10:46:35;;;;;;;8.00;6.43;;;;;;;6.98;48.93;101936.28;5005434;27;97625;-70
2024/01/21 10:49:03;;;;;;;7.57;6.40;;;;;;;7.01;49.29;101936.16;4997070;28;96831;-69
2024/01/21 10:51:31;;;;;;;8.27;5.95;;;;;;;7.04;49.25;101945.00;5010293;28;96754;-69
2024/01/21 10:54:02;;;;;;;8.15;6.10;;;;;;;7.06;49.30;101936.00;5011701;28;97247;-70
2024/01/21 10:56:30;;;;;;;12.57;6.25;;;;;;;7.09;49.43;101926.97;4998057;28;100550;-70
2024/01/21 10:58:57;;;;;;;8.90;6.40;;;;;;;7.12;49.73;101938.41;5003868;28;96828;-69
2024/01/21 11:01:24;;;;;;;7.65;6.43;;;;;;;7.15;49.67;101938.28;5003112;28;97517;-69
2024/01/21 11:04:07;;;;;;;7.72;6.40;;;;;;;7.15;49.77;101930.28;5002520;28;98515;-70
2024/01/21 11:06:34;;;;;;;8.68;6.82;;;;;;;7.18;49.93;101926.63;5019113;27;97632;-69
2024/01/21 11:09:03;;;;;;;9.63;6.63;;;;;;;7.21;50.13;101913.13;4996317;28;97578;-70
2024/01/21 11:11:30;;;;;;;9.40;6.65;;;;;;;7.22;50.13;101915.75;5003261;28;97484;-69
2024/01/21 11:13:57;;;;;;;8.70;7.07;;;;;;;7.25;50.30;101910.28;5000254;28;97589;-70
2024/01/21 11:16:26;;;;;;;8.90;6.32;;;;;;;7.28;50.27;101919.97;4996166;28;97558;-69
2024/01/21 11:18:53;;;;;;;8.23;6.22;;;;;;;7.29;50.43;101911.03;5003542;28;97522;-69
2024/01/21 11:21:21;;;;;;;11.98;6.03;;;;;;;7.31;50.53;101922.53;5000184;28;96857;-70
2024/01/21 11:24:04;;;;;;;7.78;6.45;;;;;;;7.31;50.65;101918.03;5006586;28;97561;-69
2024/01/21 11:26:34;;;;;;;8.88;6.45;;;;;;;7.35;50.52;101921.47;4994938;28;97761;-70
2024/01/21 11:29:28;;;;;;;11.70;6.55;;;;;;;7.36;50.87;101931.22;5006294;28;97394;-69